Norfolk International Airport Norfolk US
ICAO: KORF
IATA: ORF
Category: Large
Scheduled Services: Yes

Elevation: 26 ft
TransAlt. 18000 ft.

Airport Communications:
APP:28.83
APP:118.9
ATIS:127.15
CLNC DEL:118.5
DEP:125.2
GND:121.9
LEESBURG RDO:116.9
TWR:120.8

KORF Zoom In..

Runways:

(A) RW 05 length 9001 ft width 150 ft
ILS 109.10 / hdg 47

(B) RW 14 length 4875 ft width 150 ft
---- / hdg 137

(C) RW 23 length 9001 ft width 150 ft
ILS 109.10 / hdg 227

(D) RW 32 length 4875 ft width 150 ft
---- / hdg 317

Location; KORF
Day. 17 / Time. 06.51 Zulu
* Altimeter: 29.97
* Temperature: 26° c. 78.8°f.
* Wind from: 200° Speed 09 kn.
Dewpoint: 24° c.
Visibility: 10 Statute Miles.
Clouds: Clear (automated report).

KORF 170651Z 20009KT 10SM CLR 26/24 A2997 RMK AO2 SLP146 T02560244


Wind From 200°
Speed 09 kn.

 
 
jpsmedia.com for Web Design worldairports.se 2018   terms of use